sensor_id;sensor_type;location;lat;lon;timestamp;P1;durP1;ratioP1;P2;durP2;ratioP2
8177;SDS011;4130;48.740;9.132;2022-12-07T00:00:43;4.43;;;3.37;;
8177;SDS011;4130;48.740;9.132;2022-12-07T00:03:11;7.00;;;3.23;;
8177;SDS011;4130;48.740;9.132;2022-12-07T00:05:38;4.60;;;3.40;;
8177;SDS011;4130;48.740;9.132;2022-12-07T00:08:05;4.57;;;3.23;;
8177;SDS011;4130;48.740;9.132;2022-12-07T00:10:32;4.20;;;3.80;;
8177;SDS011;4130;48.740;9.132;2022-12-07T00:12:59;4.50;;;3.23;;
8177;SDS011;4130;48.740;9.132;2022-12-07T00:15:26;5.23;;;3.50;;
8177;SDS011;4130;48.740;9.132;2022-12-07T00:17:53;4.63;;;3.40;;
8177;SDS011;4130;48.740;9.132;2022-12-07T00:20:21;5.43;;;3.47;;
8177;SDS011;4130;48.740;9.132;2022-12-07T00:22:48;4.40;;;3.33;;
8177;SDS011;4130;48.740;9.132;2022-12-07T00:25:14;5.17;;;3.93;;
8177;SDS011;4130;48.740;9.132;2022-12-07T00:27:43;3.50;;;3.20;;
8177;SDS011;4130;48.740;9.132;2022-12-07T00:30:10;3.90;;;3.37;;
8177;SDS011;4130;48.740;9.132;2022-12-07T00:32:37;5.07;;;3.50;;
8177;SDS011;4130;48.740;9.132;2022-12-07T00:35:04;6.13;;;3.83;;
8177;SDS011;4130;48.740;9.132;2022-12-07T00:37:33;4.20;;;3.40;;
8177;SDS011;4130;48.740;9.132;2022-12-07T00:39:59;4.87;;;3.43;;
8177;SDS011;4130;48.740;9.132;2022-12-07T00:42:26;5.20;;;3.50;;
8177;SDS011;4130;48.740;9.132;2022-12-07T00:44:53;3.87;;;3.30;;
8177;SDS011;4130;48.740;9.132;2022-12-07T00:47:19;3.63;;;3.23;;
8177;SDS011;4130;48.740;9.132;2022-12-07T00:49:46;4.60;;;3.80;;
8177;SDS011;4130;48.740;9.132;2022-12-07T00:52:13;7.13;;;3.73;;
8177;SDS011;4130;48.740;9.132;2022-12-07T00:54:41;5.13;;;3.57;;
8177;SDS011;4130;48.740;9.132;2022-12-07T00:57:08;4.27;;;3.47;;
8177;SDS011;4130;48.740;9.132;2022-12-07T00:59:36;5.27;;;3.63;;
8177;SDS011;4130;48.740;9.132;2022-12-07T01:02:02;4.27;;;3.40;;
8177;SDS011;4130;48.740;9.132;2022-12-07T01:04:29;4.10;;;3.70;;
8177;SDS011;4130;48.740;9.132;2022-12-07T01:06:56;5.77;;;3.70;;
8177;SDS011;4130;48.740;9.132;2022-12-07T01:09:22;6.27;;;3.67;;
8177;SDS011;4130;48.740;9.132;2022-12-07T01:11:50;4.70;;;4.00;;
8177;SDS011;4130;48.740;9.132;2022-12-07T01:14:17;6.97;;;3.80;;
8177;SDS011;4130;48.740;9.132;2022-12-07T01:16:44;5.07;;;4.27;;
8177;SDS011;4130;48.740;9.132;2022-12-07T01:19:11;6.10;;;4.13;;
8177;SDS011;4130;48.740;9.132;2022-12-07T01:21:37;5.17;;;4.03;;
8177;SDS011;4130;48.740;9.132;2022-12-07T01:24:05;5.20;;;4.20;;
8177;SDS011;4130;48.740;9.132;2022-12-07T01:26:33;4.37;;;3.97;;
8177;SDS011;4130;48.740;9.132;2022-12-07T01:29:01;6.10;;;4.33;;
8177;SDS011;4130;48.740;9.132;2022-12-07T01:31:28;5.53;;;4.20;;
8177;SDS011;4130;48.740;9.132;2022-12-07T01:33:56;5.13;;;4.03;;
8177;SDS011;4130;48.740;9.132;2022-12-07T01:36:25;5.93;;;4.17;;
8177;SDS011;4130;48.740;9.132;2022-12-07T01:38:54;5.27;;;4.17;;
8177;SDS011;4130;48.740;9.132;2022-12-07T01:41:22;5.53;;;4.20;;
8177;SDS011;4130;48.740;9.132;2022-12-07T01:46:38;5.70;;;4.13;;
8177;SDS011;4130;48.740;9.132;2022-12-07T01:49:07;5.97;;;4.10;;
8177;SDS011;4130;48.740;9.132;2022-12-07T01:51:36;7.90;;;4.40;;
8177;SDS011;4130;48.740;9.132;2022-12-07T01:54:06;6.47;;;4.07;;
8177;SDS011;4130;48.740;9.132;2022-12-07T01:56:33;6.00;;;4.17;;
8177;SDS011;4130;48.740;9.132;2022-12-07T01:59:01;7.10;;;3.77;;
8177;SDS011;4130;48.740;9.132;2022-12-07T02:01:29;6.60;;;4.13;;
8177;SDS011;4130;48.740;9.132;2022-12-07T02:03:56;4.30;;;3.83;;
8177;SDS011;4130;48.740;9.132;2022-12-07T02:06:24;5.13;;;4.00;;
8177;SDS011;4130;48.740;9.132;2022-12-07T02:08:52;5.03;;;4.30;;
8177;SDS011;4130;48.740;9.132;2022-12-07T02:11:19;6.93;;;4.43;;
8177;SDS011;4130;48.740;9.132;2022-12-07T02:13:47;6.43;;;4.73;;
8177;SDS011;4130;48.740;9.132;2022-12-07T02:16:18;8.17;;;4.97;;
8177;SDS011;4130;48.740;9.132;2022-12-07T02:18:58;6.43;;;3.97;;
8177;SDS011;4130;48.740;9.132;2022-12-07T02:21:38;4.27;;;3.73;;
8177;SDS011;4130;48.740;9.132;2022-12-07T02:24:14;4.30;;;3.90;;
8177;SDS011;4130;48.740;9.132;2022-12-07T02:30:00;5.67;;;4.20;;
8177;SDS011;4130;48.740;9.132;2022-12-07T02:32:30;5.93;;;4.33;;
8177;SDS011;4130;48.740;9.132;2022-12-07T02:35:08;5.90;;;3.90;;
8177;SDS011;4130;48.740;9.132;2022-12-07T02:37:39;7.03;;;4.67;;
8177;SDS011;4130;48.740;9.132;2022-12-07T02:40:13;6.03;;;4.50;;
8177;SDS011;4130;48.740;9.132;2022-12-07T02:42:44;6.13;;;4.07;;
8177;SDS011;4130;48.740;9.132;2022-12-07T02:45:17;5.13;;;4.40;;
8177;SDS011;4130;48.740;9.132;2022-12-07T02:47:48;5.30;;;4.07;;
8177;SDS011;4130;48.740;9.132;2022-12-07T02:50:19;8.63;;;5.07;;
8177;SDS011;4130;48.740;9.132;2022-12-07T02:52:47;4.87;;;4.17;;
8177;SDS011;4130;48.740;9.132;2022-12-07T02:55:14;5.77;;;4.50;;
8177;SDS011;4130;48.740;9.132;2022-12-07T02:57:48;5.23;;;4.10;;
8177;SDS011;4130;48.740;9.132;2022-12-07T03:00:24;5.13;;;4.13;;
8177;SDS011;4130;48.740;9.132;2022-12-07T03:02:53;5.90;;;4.43;;
8177;SDS011;4130;48.740;9.132;2022-12-07T03:05:37;7.73;;;4.50;;
8177;SDS011;4130;48.740;9.132;2022-12-07T03:08:15;5.10;;;3.83;;
8177;SDS011;4130;48.740;9.132;2022-12-07T03:10:51;6.10;;;4.30;;
8177;SDS011;4130;48.740;9.132;2022-12-07T03:13:23;6.07;;;4.63;;
8177;SDS011;4130;48.740;9.132;2022-12-07T03:15:57;7.13;;;4.53;;
8177;SDS011;4130;48.740;9.132;2022-12-07T03:18:29;6.83;;;4.73;;
8177;SDS011;4130;48.740;9.132;2022-12-07T03:20:58;6.27;;;4.43;;
8177;SDS011;4130;48.740;9.132;2022-12-07T03:23:31;5.63;;;4.30;;
8177;SDS011;4130;48.740;9.132;2022-12-07T03:26:00;5.67;;;4.63;;
8177;SDS011;4130;48.740;9.132;2022-12-07T03:28:31;7.97;;;5.23;;
8177;SDS011;4130;48.740;9.132;2022-12-07T03:31:01;5.57;;;4.27;;
8177;SDS011;4130;48.740;9.132;2022-12-07T03:33:35;5.87;;;4.20;;
8177;SDS011;4130;48.740;9.132;2022-12-07T03:36:06;6.13;;;4.60;;
8177;SDS011;4130;48.740;9.132;2022-12-07T03:38:38;6.57;;;4.37;;
8177;SDS011;4130;48.740;9.132;2022-12-07T03:41:08;5.80;;;3.90;;
8177;SDS011;4130;48.740;9.132;2022-12-07T03:43:38;7.13;;;4.97;;
8177;SDS011;4130;48.740;9.132;2022-12-07T03:46:09;6.00;;;4.53;;
8177;SDS011;4130;48.740;9.132;2022-12-07T03:48:46;6.70;;;4.53;;
8177;SDS011;4130;48.740;9.132;2022-12-07T03:51:21;6.33;;;4.60;;
8177;SDS011;4130;48.740;9.132;2022-12-07T03:53:51;7.70;;;4.43;;
8177;SDS011;4130;48.740;9.132;2022-12-07T03:56:21;6.40;;;4.70;;
8177;SDS011;4130;48.740;9.132;2022-12-07T03:58:49;6.67;;;4.70;;
8177;SDS011;4130;48.740;9.132;2022-12-07T04:01:19;5.93;;;4.50;;
8177;SDS011;4130;48.740;9.132;2022-12-07T04:03:46;5.53;;;4.40;;
8177;SDS011;4130;48.740;9.132;2022-12-07T04:06:13;6.93;;;4.20;;
8177;SDS011;4130;48.740;9.132;2022-12-07T04:08:39;6.60;;;3.93;;
8177;SDS011;4130;48.740;9.132;2022-12-07T04:11:06;6.63;;;4.50;;
8177;SDS011;4130;48.740;9.132;2022-12-07T04:13:33;4.73;;;3.87;;
8177;SDS011;4130;48.740;9.132;2022-12-07T04:16:21;5.57;;;4.20;;
8177;SDS011;4130;48.740;9.132;2022-12-07T04:18:48;4.90;;;4.13;;
8177;SDS011;4130;48.740;9.132;2022-12-07T04:21:15;6.37;;;4.13;;
8177;SDS011;4130;48.740;9.132;2022-12-07T04:23:42;6.50;;;4.53;;
8177;SDS011;4130;48.740;9.132;2022-12-07T04:26:08;4.13;;;3.73;;
8177;SDS011;4130;48.740;9.132;2022-12-07T04:28:40;6.60;;;4.17;;
8177;SDS011;4130;48.740;9.132;2022-12-07T04:31:07;7.33;;;4.33;;
8177;SDS011;4130;48.740;9.132;2022-12-07T04:33:36;6.70;;;4.73;;
8177;SDS011;4130;48.740;9.132;2022-12-07T04:36:03;6.27;;;3.83;;
8177;SDS011;4130;48.740;9.132;2022-12-07T04:38:30;6.70;;;4.57;;
8177;SDS011;4130;48.740;9.132;2022-12-07T04:40:57;5.27;;;4.30;;
8177;SDS011;4130;48.740;9.132;2022-12-07T04:43:24;6.73;;;4.17;;
8177;SDS011;4130;48.740;9.132;2022-12-07T04:45:50;5.53;;;3.70;;
8177;SDS011;4130;48.740;9.132;2022-12-07T04:48:17;5.43;;;3.70;;
8177;SDS011;4130;48.740;9.132;2022-12-07T04:50:47;5.87;;;3.60;;
8177;SDS011;4130;48.740;9.132;2022-12-07T04:53:15;4.60;;;3.50;;
8177;SDS011;4130;48.740;9.132;2022-12-07T04:55:41;3.83;;;3.43;;
8177;SDS011;4130;48.740;9.132;2022-12-07T04:58:08;4.63;;;3.90;;
8177;SDS011;4130;48.740;9.132;2022-12-07T05:00:35;4.83;;;3.60;;
8177;SDS011;4130;48.740;9.132;2022-12-07T05:03:02;5.50;;;3.70;;
8177;SDS011;4130;48.740;9.132;2022-12-07T05:05:28;3.80;;;3.30;;
8177;SDS011;4130;48.740;9.132;2022-12-07T05:07:56;3.47;;;2.80;;
8177;SDS011;4130;48.740;9.132;2022-12-07T05:10:23;4.93;;;3.00;;
8177;SDS011;4130;48.740;9.132;2022-12-07T05:12:50;5.10;;;3.00;;
8177;SDS011;4130;48.740;9.132;2022-12-07T05:15:17;3.70;;;3.10;;
8177;SDS011;4130;48.740;9.132;2022-12-07T05:17:44;3.37;;;2.80;;
8177;SDS011;4130;48.740;9.132;2022-12-07T05:20:11;3.93;;;2.73;;
8177;SDS011;4130;48.740;9.132;2022-12-07T05:22:38;3.57;;;2.90;;
8177;SDS011;4130;48.740;9.132;2022-12-07T05:25:06;3.60;;;3.00;;
8177;SDS011;4130;48.740;9.132;2022-12-07T05:27:35;3.47;;;2.77;;
8177;SDS011;4130;48.740;9.132;2022-12-07T05:30:02;2.93;;;2.60;;
8177;SDS011;4130;48.740;9.132;2022-12-07T05:32:30;5.03;;;3.20;;
8177;SDS011;4130;48.740;9.132;2022-12-07T05:34:57;3.67;;;3.03;;
8177;SDS011;4130;48.740;9.132;2022-12-07T05:37:23;3.13;;;2.70;;
8177;SDS011;4130;48.740;9.132;2022-12-07T05:39:50;4.73;;;2.60;;
8177;SDS011;4130;48.740;9.132;2022-12-07T05:42:18;3.20;;;2.90;;
8177;SDS011;4130;48.740;9.132;2022-12-07T05:44:45;3.73;;;2.90;;
8177;SDS011;4130;48.740;9.132;2022-12-07T05:47:13;4.03;;;2.80;;
8177;SDS011;4130;48.740;9.132;2022-12-07T05:49:42;4.17;;;2.93;;
8177;SDS011;4130;48.740;9.132;2022-12-07T05:52:08;3.37;;;2.80;;
8177;SDS011;4130;48.740;9.132;2022-12-07T05:54:35;3.33;;;2.70;;
8177;SDS011;4130;48.740;9.132;2022-12-07T05:57:02;3.50;;;2.97;;
8177;SDS011;4130;48.740;9.132;2022-12-07T05:59:44;3.00;;;2.37;;
8177;SDS011;4130;48.740;9.132;2022-12-07T06:02:10;3.27;;;2.70;;
8177;SDS011;4130;48.740;9.132;2022-12-07T06:04:38;2.83;;;2.63;;
8177;SDS011;4130;48.740;9.132;2022-12-07T06:07:06;2.67;;;2.47;;
8177;SDS011;4130;48.740;9.132;2022-12-07T06:09:34;3.50;;;2.63;;
8177;SDS011;4130;48.740;9.132;2022-12-07T06:12:00;3.30;;;2.73;;
8177;SDS011;4130;48.740;9.132;2022-12-07T06:14:47;3.13;;;2.40;;
8177;SDS011;4130;48.740;9.132;2022-12-07T06:17:14;3.03;;;2.70;;
8177;SDS011;4130;48.740;9.132;2022-12-07T06:19:41;3.30;;;2.90;;
8177;SDS011;4130;48.740;9.132;2022-12-07T06:22:08;2.80;;;2.47;;
8177;SDS011;4130;48.740;9.132;2022-12-07T06:24:36;3.43;;;3.00;;
8177;SDS011;4130;48.740;9.132;2022-12-07T06:27:04;3.30;;;2.70;;
8177;SDS011;4130;48.740;9.132;2022-12-07T06:29:33;5.00;;;3.00;;
8177;SDS011;4130;48.740;9.132;2022-12-07T06:32:01;5.30;;;3.53;;
8177;SDS011;4130;48.740;9.132;2022-12-07T06:34:29;5.80;;;4.47;;
8177;SDS011;4130;48.740;9.132;2022-12-07T06:36:56;4.03;;;3.03;;
8177;SDS011;4130;48.740;9.132;2022-12-07T06:39:24;3.67;;;3.07;;
8177;SDS011;4130;48.740;9.132;2022-12-07T06:41:52;4.20;;;3.00;;
8177;SDS011;4130;48.740;9.132;2022-12-07T06:44:19;5.67;;;3.60;;
8177;SDS011;4130;48.740;9.132;2022-12-07T06:46:47;3.63;;;3.00;;
8177;SDS011;4130;48.740;9.132;2022-12-07T06:49:24;3.97;;;3.37;;
8177;SDS011;4130;48.740;9.132;2022-12-07T06:51:51;5.57;;;3.63;;
8177;SDS011;4130;48.740;9.132;2022-12-07T06:54:17;4.17;;;3.37;;
8177;SDS011;4130;48.740;9.132;2022-12-07T06:56:44;5.10;;;3.57;;
8177;SDS011;4130;48.740;9.132;2022-12-07T06:59:11;4.17;;;3.30;;
8177;SDS011;4130;48.740;9.132;2022-12-07T07:01:38;4.60;;;3.53;;
8177;SDS011;4130;48.740;9.132;2022-12-07T07:04:04;5.80;;;3.50;;
8177;SDS011;4130;48.740;9.132;2022-12-07T07:06:33;4.03;;;3.07;;
8177;SDS011;4130;48.740;9.132;2022-12-07T07:08:59;5.70;;;3.53;;
8177;SDS011;4130;48.740;9.132;2022-12-07T07:11:26;5.93;;;3.63;;
8177;SDS011;4130;48.740;9.132;2022-12-07T07:13:53;4.27;;;3.50;;
8177;SDS011;4130;48.740;9.132;2022-12-07T07:16:22;4.60;;;3.30;;
8177;SDS011;4130;48.740;9.132;2022-12-07T07:18:49;7.67;;;5.10;;
8177;SDS011;4130;48.740;9.132;2022-12-07T07:21:15;3.83;;;3.07;;
8177;SDS011;4130;48.740;9.132;2022-12-07T07:23:44;5.57;;;3.67;;
8177;SDS011;4130;48.740;9.132;2022-12-07T07:26:10;7.53;;;4.57;;
8177;SDS011;4130;48.740;9.132;2022-12-07T07:28:37;3.87;;;3.30;;
8177;SDS011;4130;48.740;9.132;2022-12-07T07:31:04;6.33;;;3.87;;
8177;SDS011;4130;48.740;9.132;2022-12-07T07:33:31;4.60;;;2.70;;
8177;SDS011;4130;48.740;9.132;2022-12-07T07:35:58;6.10;;;3.27;;
8177;SDS011;4130;48.740;9.132;2022-12-07T07:38:25;4.40;;;3.33;;
8177;SDS011;4130;48.740;9.132;2022-12-07T07:40:53;5.80;;;3.73;;
8177;SDS011;4130;48.740;9.132;2022-12-07T07:43:19;5.10;;;3.70;;
8177;SDS011;4130;48.740;9.132;2022-12-07T07:45:46;4.40;;;3.40;;
8177;SDS011;4130;48.740;9.132;2022-12-07T07:48:13;8.87;;;3.30;;
8177;SDS011;4130;48.740;9.132;2022-12-07T07:50:40;6.20;;;3.23;;
8177;SDS011;4130;48.740;9.132;2022-12-07T07:53:07;5.47;;;4.10;;
8177;SDS011;4130;48.740;9.132;2022-12-07T07:55:33;8.00;;;3.63;;
8177;SDS011;4130;48.740;9.132;2022-12-07T07:58:01;8.63;;;3.73;;
8177;SDS011;4130;48.740;9.132;2022-12-07T08:00:28;6.03;;;3.37;;
8177;SDS011;4130;48.740;9.132;2022-12-07T08:02:55;6.43;;;3.70;;
8177;SDS011;4130;48.740;9.132;2022-12-07T08:05:22;7.33;;;3.80;;
8177;SDS011;4130;48.740;9.132;2022-12-07T08:07:49;7.80;;;3.80;;
8177;SDS011;4130;48.740;9.132;2022-12-07T08:10:16;6.70;;;4.27;;
8177;SDS011;4130;48.740;9.132;2022-12-07T08:12:43;7.80;;;4.47;;
8177;SDS011;4130;48.740;9.132;2022-12-07T08:15:29;12.77;;;5.00;;
8177;SDS011;4130;48.740;9.132;2022-12-07T08:17:57;10.33;;;4.80;;
8177;SDS011;4130;48.740;9.132;2022-12-07T08:20:24;10.70;;;4.70;;
8177;SDS011;4130;48.740;9.132;2022-12-07T08:22:51;5.80;;;4.37;;
8177;SDS011;4130;48.740;9.132;2022-12-07T08:25:18;5.47;;;3.53;;
8177;SDS011;4130;48.740;9.132;2022-12-07T08:27:45;9.93;;;3.73;;
8177;SDS011;4130;48.740;9.132;2022-12-07T08:30:11;4.73;;;3.30;;
8177;SDS011;4130;48.740;9.132;2022-12-07T08:32:40;5.53;;;3.70;;
8177;SDS011;4130;48.740;9.132;2022-12-07T08:35:07;4.60;;;3.30;;
8177;SDS011;4130;48.740;9.132;2022-12-07T08:37:34;5.63;;;3.80;;
8177;SDS011;4130;48.740;9.132;2022-12-07T08:40:02;4.23;;;3.30;;
8177;SDS011;4130;48.740;9.132;2022-12-07T08:42:30;3.73;;;3.20;;
8177;SDS011;4130;48.740;9.132;2022-12-07T08:45:03;6.33;;;3.33;;
8177;SDS011;4130;48.740;9.132;2022-12-07T08:47:30;3.87;;;2.83;;
8177;SDS011;4130;48.740;9.132;2022-12-07T08:50:00;4.17;;;3.23;;
8177;SDS011;4130;48.740;9.132;2022-12-07T08:52:29;4.83;;;3.40;;
8177;SDS011;4130;48.740;9.132;2022-12-07T08:54:56;5.50;;;3.03;;
8177;SDS011;4130;48.740;9.132;2022-12-07T08:57:24;4.77;;;2.93;;
8177;SDS011;4130;48.740;9.132;2022-12-07T08:59:51;4.83;;;3.17;;
8177;SDS011;4130;48.740;9.132;2022-12-07T09:02:18;5.80;;;3.77;;
8177;SDS011;4130;48.740;9.132;2022-12-07T09:04:44;7.53;;;3.67;;
8177;SDS011;4130;48.740;9.132;2022-12-07T09:07:13;5.43;;;3.50;;
8177;SDS011;4130;48.740;9.132;2022-12-07T09:09:40;4.27;;;3.17;;
8177;SDS011;4130;48.740;9.132;2022-12-07T09:12:06;5.50;;;3.23;;
8177;SDS011;4130;48.740;9.132;2022-12-07T09:14:33;5.23;;;3.20;;
8177;SDS011;4130;48.740;9.132;2022-12-07T09:17:05;4.97;;;2.87;;
8177;SDS011;4130;48.740;9.132;2022-12-07T09:19:33;5.63;;;3.50;;
8177;SDS011;4130;48.740;9.132;2022-12-07T09:21:59;3.77;;;2.57;;
8177;SDS011;4130;48.740;9.132;2022-12-07T09:24:27;4.17;;;2.97;;
8177;SDS011;4130;48.740;9.132;2022-12-07T09:26:54;3.73;;;3.00;;
8177;SDS011;4130;48.740;9.132;2022-12-07T09:29:21;4.03;;;3.03;;
8177;SDS011;4130;48.740;9.132;2022-12-07T09:31:48;4.57;;;2.87;;
8177;SDS011;4130;48.740;9.132;2022-12-07T09:34:15;6.30;;;3.07;;
8177;SDS011;4130;48.740;9.132;2022-12-07T09:36:41;4.10;;;3.20;;
8177;SDS011;4130;48.740;9.132;2022-12-07T09:39:08;2.60;;;2.40;;
8177;SDS011;4130;48.740;9.132;2022-12-07T09:41:38;8.67;;;3.43;;
8177;SDS011;4130;48.740;9.132;2022-12-07T09:44:09;5.13;;;3.70;;
8177;SDS011;4130;48.740;9.132;2022-12-07T09:46:39;6.60;;;3.10;;
8177;SDS011;4130;48.740;9.132;2022-12-07T09:49:08;5.07;;;3.20;;
8177;SDS011;4130;48.740;9.132;2022-12-07T09:51:38;3.70;;;3.13;;
8177;SDS011;4130;48.740;9.132;2022-12-07T09:54:05;3.17;;;2.70;;
8177;SDS011;4130;48.740;9.132;2022-12-07T09:56:32;3.93;;;3.37;;
8177;SDS011;4130;48.740;9.132;2022-12-07T09:59:01;4.80;;;2.90;;
8177;SDS011;4130;48.740;9.132;2022-12-07T10:01:29;4.93;;;2.87;;
8177;SDS011;4130;48.740;9.132;2022-12-07T10:03:59;5.10;;;2.60;;
8177;SDS011;4130;48.740;9.132;2022-12-07T10:06:32;3.33;;;2.50;;
8177;SDS011;4130;48.740;9.132;2022-12-07T10:08:58;4.67;;;2.60;;
8177;SDS011;4130;48.740;9.132;2022-12-07T10:11:25;2.40;;;2.20;;
8177;SDS011;4130;48.740;9.132;2022-12-07T10:13:52;3.77;;;2.43;;
8177;SDS011;4130;48.740;9.132;2022-12-07T10:16:35;3.33;;;2.53;;
8177;SDS011;4130;48.740;9.132;2022-12-07T10:19:18;2.70;;;2.23;;
8177;SDS011;4130;48.740;9.132;2022-12-07T10:22:10;3.17;;;2.10;;
8177;SDS011;4130;48.740;9.132;2022-12-07T10:24:39;4.83;;;2.30;;
8177;SDS011;4130;48.740;9.132;2022-12-07T10:27:17;3.17;;;2.10;;
8177;SDS011;4130;48.740;9.132;2022-12-07T10:29:54;3.07;;;2.63;;
8177;SDS011;4130;48.740;9.132;2022-12-07T10:32:31;3.33;;;2.70;;
8177;SDS011;4130;48.740;9.132;2022-12-07T10:35:19;2.30;;;2.03;;
8177;SDS011;4130;48.740;9.132;2022-12-07T10:37:49;2.03;;;1.80;;
8177;SDS011;4130;48.740;9.132;2022-12-07T10:40:27;2.83;;;2.00;;
8177;SDS011;4130;48.740;9.132;2022-12-07T10:43:12;2.47;;;1.97;;
8177;SDS011;4130;48.740;9.132;2022-12-07T10:45:54;1.87;;;1.70;;
8177;SDS011;4130;48.740;9.132;2022-12-07T10:48:41;5.47;;;2.20;;
8177;SDS011;4130;48.740;9.132;2022-12-07T10:51:18;2.43;;;2.10;;
8177;SDS011;4130;48.740;9.132;2022-12-07T10:53:57;3.87;;;2.37;;
8177;SDS011;4130;48.740;9.132;2022-12-07T10:56:36;2.13;;;1.93;;
8177;SDS011;4130;48.740;9.132;2022-12-07T10:59:23;3.53;;;2.30;;
8177;SDS011;4130;48.740;9.132;2022-12-07T11:02:09;3.47;;;2.60;;
8177;SDS011;4130;48.740;9.132;2022-12-07T11:04:53;2.50;;;2.23;;
8177;SDS011;4130;48.740;9.132;2022-12-07T11:07:32;2.73;;;2.30;;
8177;SDS011;4130;48.740;9.132;2022-12-07T11:10:09;4.43;;;2.90;;
8177;SDS011;4130;48.740;9.132;2022-12-07T11:12:44;3.03;;;2.60;;
8177;SDS011;4130;48.740;9.132;2022-12-07T11:15:33;3.00;;;2.30;;
8177;SDS011;4130;48.740;9.132;2022-12-07T11:18:11;4.57;;;2.70;;
8177;SDS011;4130;48.740;9.132;2022-12-07T11:20:49;3.07;;;2.50;;
8177;SDS011;4130;48.740;9.132;2022-12-07T11:23:24;3.23;;;2.50;;
8177;SDS011;4130;48.740;9.132;2022-12-07T11:25:59;2.40;;;2.17;;
8177;SDS011;4130;48.740;9.132;2022-12-07T11:28:33;2.70;;;2.23;;
8177;SDS011;4130;48.740;9.132;2022-12-07T11:31:12;3.50;;;2.30;;
8177;SDS011;4130;48.740;9.132;2022-12-07T11:33:45;4.23;;;2.23;;
8177;SDS011;4130;48.740;9.132;2022-12-07T11:36:23;2.70;;;2.27;;
8177;SDS011;4130;48.740;9.132;2022-12-07T11:39:00;3.57;;;2.10;;
8177;SDS011;4130;48.740;9.132;2022-12-07T11:41:29;4.27;;;2.40;;
8177;SDS011;4130;48.740;9.132;2022-12-07T11:44:02;3.63;;;2.50;;
8177;SDS011;4130;48.740;9.132;2022-12-07T11:46:46;2.63;;;2.33;;
8177;SDS011;4130;48.740;9.132;2022-12-07T11:49:19;3.10;;;2.23;;
8177;SDS011;4130;48.740;9.132;2022-12-07T11:51:52;2.97;;;2.33;;
8177;SDS011;4130;48.740;9.132;2022-12-07T11:54:23;2.30;;;2.03;;
8177;SDS011;4130;48.740;9.132;2022-12-07T11:56:54;2.20;;;2.00;;
8177;SDS011;4130;48.740;9.132;2022-12-07T11:59:29;2.53;;;1.97;;
8177;SDS011;4130;48.740;9.132;2022-12-07T12:02:00;2.20;;;2.00;;
8177;SDS011;4130;48.740;9.132;2022-12-07T12:04:41;3.10;;;1.80;;
8177;SDS011;4130;48.740;9.132;2022-12-07T12:07:19;2.40;;;1.97;;
8177;SDS011;4130;48.740;9.132;2022-12-07T12:09:49;3.47;;;2.30;;
8177;SDS011;4130;48.740;9.132;2022-12-07T12:12:26;2.03;;;1.70;;
8177;SDS011;4130;48.740;9.132;2022-12-07T12:15:13;2.10;;;1.77;;
8177;SDS011;4130;48.740;9.132;2022-12-07T12:17:56;2.73;;;2.00;;
8177;SDS011;4130;48.740;9.132;2022-12-07T12:20:45;1.80;;;1.70;;
8177;SDS011;4130;48.740;9.132;2022-12-07T12:23:17;2.20;;;1.90;;
8177;SDS011;4130;48.740;9.132;2022-12-07T12:25:47;1.63;;;1.53;;
8177;SDS011;4130;48.740;9.132;2022-12-07T12:28:19;6.80;;;1.73;;
8177;SDS011;4130;48.740;9.132;2022-12-07T12:33:42;1.70;;;1.60;;
8177;SDS011;4130;48.740;9.132;2022-12-07T12:39:12;1.53;;;1.40;;
8177;SDS011;4130;48.740;9.132;2022-12-07T12:41:59;1.73;;;1.57;;
8177;SDS011;4130;48.740;9.132;2022-12-07T12:44:39;2.23;;;2.00;;
8177;SDS011;4130;48.740;9.132;2022-12-07T12:50:23;2.53;;;2.20;;
8177;SDS011;4130;48.740;9.132;2022-12-07T12:52:55;2.93;;;2.33;;
8177;SDS011;4130;48.740;9.132;2022-12-07T12:58:46;2.30;;;2.10;;
8177;SDS011;4130;48.740;9.132;2022-12-07T13:07:10;2.80;;;2.03;;
8177;SDS011;4130;48.740;9.132;2022-12-07T13:09:42;2.33;;;2.13;;
8177;SDS011;4130;48.740;9.132;2022-12-07T13:12:12;5.50;;;2.60;;
8177;SDS011;4130;48.740;9.132;2022-12-07T13:14:58;3.10;;;1.80;;
8177;SDS011;4130;48.740;9.132;2022-12-07T13:23:26;4.33;;;2.23;;
8177;SDS011;4130;48.740;9.132;2022-12-07T13:26:15;2.27;;;2.03;;
8177;SDS011;4130;48.740;9.132;2022-12-07T13:28:46;1.80;;;1.70;;
8177;SDS011;4130;48.740;9.132;2022-12-07T13:31:18;2.17;;;1.80;;
8177;SDS011;4130;48.740;9.132;2022-12-07T13:33:51;1.87;;;1.70;;
8177;SDS011;4130;48.740;9.132;2022-12-07T13:36:19;2.63;;;2.17;;
8177;SDS011;4130;48.740;9.132;2022-12-07T13:38:50;1.60;;;1.50;;
8177;SDS011;4130;48.740;9.132;2022-12-07T13:41:19;1.90;;;1.80;;
8177;SDS011;4130;48.740;9.132;2022-12-07T13:43:51;1.70;;;1.60;;
8177;SDS011;4130;48.740;9.132;2022-12-07T13:46:35;4.40;;;2.10;;
8177;SDS011;4130;48.740;9.132;2022-12-07T13:49:18;3.17;;;1.90;;
8177;SDS011;4130;48.740;9.132;2022-12-07T13:51:47;2.10;;;1.70;;
8177;SDS011;4130;48.740;9.132;2022-12-07T13:54:14;3.13;;;1.80;;
8177;SDS011;4130;48.740;9.132;2022-12-07T13:56:41;1.60;;;1.50;;
8177;SDS011;4130;48.740;9.132;2022-12-07T13:59:16;1.90;;;1.43;;
8177;SDS011;4130;48.740;9.132;2022-12-07T14:01:46;3.77;;;1.80;;
8177;SDS011;4130;48.740;9.132;2022-12-07T14:04:32;3.53;;;2.10;;
8177;SDS011;4130;48.740;9.132;2022-12-07T14:07:00;2.00;;;1.77;;
8177;SDS011;4130;48.740;9.132;2022-12-07T14:09:52;4.07;;;2.00;;
8177;SDS011;4130;48.740;9.132;2022-12-07T14:12:23;1.63;;;1.53;;
8177;SDS011;4130;48.740;9.132;2022-12-07T14:14:51;1.73;;;1.63;;
8177;SDS011;4130;48.740;9.132;2022-12-07T14:17:21;6.07;;;1.97;;
8177;SDS011;4130;48.740;9.132;2022-12-07T14:19:50;3.60;;;2.30;;
8177;SDS011;4130;48.740;9.132;2022-12-07T14:22:22;1.83;;;1.70;;
8177;SDS011;4130;48.740;9.132;2022-12-07T14:27:51;4.40;;;2.20;;
8177;SDS011;4130;48.740;9.132;2022-12-07T14:30:25;6.07;;;2.30;;
8177;SDS011;4130;48.740;9.132;2022-12-07T14:32:57;2.10;;;1.90;;
8177;SDS011;4130;48.740;9.132;2022-12-07T14:35:25;2.10;;;1.90;;
8177;SDS011;4130;48.740;9.132;2022-12-07T14:37:53;2.30;;;2.10;;
8177;SDS011;4130;48.740;9.132;2022-12-07T14:40:20;3.23;;;2.40;;
8177;SDS011;4130;48.740;9.132;2022-12-07T14:42:49;2.90;;;2.20;;
8177;SDS011;4130;48.740;9.132;2022-12-07T14:45:19;2.20;;;2.00;;
8177;SDS011;4130;48.740;9.132;2022-12-07T14:47:47;3.77;;;2.47;;
8177;SDS011;4130;48.740;9.132;2022-12-07T14:50:16;2.57;;;2.20;;
8177;SDS011;4130;48.740;9.132;2022-12-07T14:52:45;4.50;;;2.30;;
8177;SDS011;4130;48.740;9.132;2022-12-07T14:55:16;3.77;;;2.40;;
8177;SDS011;4130;48.740;9.132;2022-12-07T14:57:57;3.37;;;2.50;;
8177;SDS011;4130;48.740;9.132;2022-12-07T15:00:25;2.23;;;2.03;;
8177;SDS011;4130;48.740;9.132;2022-12-07T15:02:54;2.93;;;2.07;;
8177;SDS011;4130;48.740;9.132;2022-12-07T15:05:23;3.03;;;2.40;;
8177;SDS011;4130;48.740;9.132;2022-12-07T15:07:50;2.90;;;2.50;;
8177;SDS011;4130;48.740;9.132;2022-12-07T15:10:18;3.50;;;2.70;;
8177;SDS011;4130;48.740;9.132;2022-12-07T15:12:46;3.13;;;2.33;;
8177;SDS011;4130;48.740;9.132;2022-12-07T15:15:13;4.80;;;2.93;;
8177;SDS011;4130;48.740;9.132;2022-12-07T15:17:40;3.83;;;2.87;;
8177;SDS011;4130;48.740;9.132;2022-12-07T15:20:09;9.50;;;3.63;;
8177;SDS011;4130;48.740;9.132;2022-12-07T15:22:39;3.40;;;2.50;;
8177;SDS011;4130;48.740;9.132;2022-12-07T15:25:07;3.23;;;2.50;;
8177;SDS011;4130;48.740;9.132;2022-12-07T15:27:35;3.73;;;2.40;;
8177;SDS011;4130;48.740;9.132;2022-12-07T15:30:02;3.67;;;2.70;;
8177;SDS011;4130;48.740;9.132;2022-12-07T15:32:29;4.70;;;3.00;;
8177;SDS011;4130;48.740;9.132;2022-12-07T15:35:02;2.80;;;2.60;;
8177;SDS011;4130;48.740;9.132;2022-12-07T15:37:29;3.90;;;2.93;;
8177;SDS011;4130;48.740;9.132;2022-12-07T15:39:57;2.90;;;2.60;;
8177;SDS011;4130;48.740;9.132;2022-12-07T15:42:24;3.80;;;2.93;;
8177;SDS011;4130;48.740;9.132;2022-12-07T15:44:51;3.87;;;2.60;;
8177;SDS011;4130;48.740;9.132;2022-12-07T15:47:33;2.87;;;2.30;;
8177;SDS011;4130;48.740;9.132;2022-12-07T15:50:02;3.37;;;2.67;;
8177;SDS011;4130;48.740;9.132;2022-12-07T15:52:37;3.30;;;2.93;;
8177;SDS011;4130;48.740;9.132;2022-12-07T15:55:07;3.20;;;2.57;;
8177;SDS011;4130;48.740;9.132;2022-12-07T15:57:36;3.57;;;3.00;;
8177;SDS011;4130;48.740;9.132;2022-12-07T16:00:04;3.53;;;2.90;;
8177;SDS011;4130;48.740;9.132;2022-12-07T16:02:34;3.17;;;2.63;;
8177;SDS011;4130;48.740;9.132;2022-12-07T16:05:03;3.90;;;3.20;;
8177;SDS011;4130;48.740;9.132;2022-12-07T16:07:30;6.37;;;3.30;;